Time;durP1;ratioP1;P1;durP2;ratioP2;P2;SDS_P1;SDS_P2;PMS_P1;PMS_P2;Temp;Humidity;BMP_temperature;BMP_pressure;BME280_temperature;BME280_humidity;BME280_pressure;Samples;Min_cycle;Max_cycle;Signal;HPM_P1;HPM_P2
2023/06/22 00:00:51;;;;;;;6.03;5.53;;;;;;;23.21;100.00;100143.19;5021746;28;20588;-62
2023/06/22 00:03:20;;;;;;;5.30;4.90;;;;;;;23.28;100.00;100148.59;5034848;28;20182;-63
2023/06/22 00:05:49;;;;;;;5.80;5.30;;;;;;;23.36;100.00;100172.22;5013547;28;20178;-63
2023/06/22 00:08:15;;;;;;;5.30;4.80;;;;;;;23.35;100.00;100178.44;5023709;28;20187;-63
2023/06/22 00:10:40;;;;;;;5.90;5.30;;;;;;;23.27;100.00;100186.31;5024400;28;20240;-62
2023/06/22 00:13:07;;;;;;;5.80;5.30;;;;;;;23.28;100.00;100193.19;5039658;28;20283;-63
2023/06/22 00:15:33;;;;;;;5.93;5.33;;;;;;;23.30;100.00;100197.31;5011983;28;20218;-63
2023/06/22 00:17:59;;;;;;;6.13;5.63;;;;;;;23.33;100.00;100209.28;5011709;28;20186;-63
2023/06/22 00:20:28;;;;;;;7.57;5.60;;;;;;;23.34;100.00;100201.25;5005068;28;20233;-63
2023/06/22 00:22:57;;;;;;;5.87;5.37;;;;;;;23.33;100.00;100199.59;5026861;28;20183;-63
2023/06/22 00:25:23;;;;;;;5.83;5.27;;;;;;;23.37;100.00;100206.16;5029871;28;20288;-63
2023/06/22 00:27:48;;;;;;;5.90;5.33;;;;;;;23.19;100.00;100197.63;5021077;28;20183;-63
2023/06/22 00:30:15;;;;;;;10.43;5.50;;;;;;;23.09;100.00;100196.94;5003312;28;20384;-64
2023/06/22 00:32:41;;;;;;;5.77;5.23;;;;;;;22.93;100.00;100200.38;5011348;28;20322;-63
2023/06/22 00:35:07;;;;;;;6.03;5.07;;;;;;;22.98;100.00;100208.56;5011759;28;20227;-61
2023/06/22 00:37:32;;;;;;;6.03;5.43;;;;;;;23.02;100.00;100205.47;5013175;28;20171;-62
2023/06/22 00:39:57;;;;;;;5.40;4.90;;;;;;;23.15;100.00;100212.03;5012734;28;20661;-62
2023/06/22 00:42:23;;;;;;;5.63;5.23;;;;;;;23.11;100.00;100213.31;5016713;28;20222;-62
2023/06/22 00:44:48;;;;;;;6.60;6.00;;;;;;;23.12;100.00;100234.19;5012121;28;20182;-63
2023/06/22 00:47:17;;;;;;;9.07;5.90;;;;;;;23.05;100.00;100251.53;5011633;28;20209;-61
2023/06/22 00:49:42;;;;;;;6.63;6.00;;;;;;;22.87;100.00;100267.41;5011943;28;20190;-62
2023/06/22 00:52:13;;;;;;;7.40;6.50;;;;;;;22.81;100.00;100287.22;5016838;28;20536;-61
2023/06/22 00:54:45;;;;;;;7.40;6.70;;;;;;;22.71;100.00;100310.97;5011991;28;20679;-61
2023/06/22 00:57:12;;;;;;;7.93;7.20;;;;;;;22.03;100.00;100330.03;4999225;28;20189;-62
2023/06/22 00:59:37;;;;;;;11.37;7.33;;;;;;;21.83;100.00;100339.84;5031054;28;20232;-62
2023/06/22 01:02:03;;;;;;;8.20;7.50;;;;;;;21.42;100.00;100335.88;5035646;28;20234;-62
2023/06/22 01:04:35;;;;;;;7.37;6.57;;;;;;;21.04;100.00;100305.59;5030534;28;20668;-62
2023/06/22 01:07:24;;;;;;;8.37;7.53;;;;;;;20.85;100.00;100225.44;5030165;28;20615;-62
2023/06/22 01:10:01;;;;;;;8.43;7.67;;;;;;;20.64;100.00;100169.84;5031155;28;20185;-62
2023/06/22 01:12:32;;;;;;;9.30;8.47;;;;;;;20.54;100.00;100170.88;5007304;28;20274;-63
2023/06/22 01:15:04;;;;;;;11.97;8.27;;;;;;;20.15;100.00;100164.88;5016564;28;20206;-63
2023/06/22 01:17:32;;;;;;;9.00;7.97;;;;;;;19.96;100.00;100151.94;5011779;28;20639;-63
2023/06/22 01:19:59;;;;;;;11.60;9.43;;;;;;;19.91;100.00;100141.91;5023144;28;20253;-63
2023/06/22 01:22:30;;;;;;;9.00;8.20;;;;;;;19.70;100.00;100139.47;5004853;28;20235;-64
2023/06/22 01:28:30;;;;;;;9.43;8.53;;;;;;;19.80;100.00;100163.75;5002698;28;20245;-64
2023/06/22 01:31:05;;;;;;;10.33;9.07;;;;;;;19.98;100.00;100178.69;5003546;28;20238;-63
2023/06/22 01:33:37;;;;;;;10.73;9.47;;;;;;;20.04;100.00;100203.41;5015424;28;20233;-64
2023/06/22 01:36:03;;;;;;;10.90;9.90;;;;;;;20.09;100.00;100233.34;5030962;28;20272;-63
2023/06/22 01:38:29;;;;;;;11.10;10.10;;;;;;;19.95;100.00;100234.63;5028282;28;20212;-64
2023/06/22 01:40:57;;;;;;;11.07;10.13;;;;;;;19.97;100.00;100229.25;5012145;28;20256;-64
2023/06/22 01:43:25;;;;;;;11.43;10.27;;;;;;;19.96;100.00;100228.44;5023962;28;20602;-64
2023/06/22 01:45:51;;;;;;;10.10;9.10;;;;;;;19.72;100.00;100213.22;5014972;28;20270;-64
2023/06/22 01:48:18;;;;;;;9.93;9.03;;;;;;;19.67;100.00;100181.50;5015211;28;20175;-65
2023/06/22 01:50:43;;;;;;;10.67;9.67;;;;;;;19.71;100.00;100185.50;5010812;28;20658;-65
2023/06/22 01:53:08;;;;;;;10.03;9.17;;;;;;;19.67;100.00;100184.94;5024822;28;20206;-65
2023/06/22 01:55:33;;;;;;;10.47;9.57;;;;;;;19.81;100.00;100185.47;5013336;28;20207;-65
2023/06/22 01:57:59;;;;;;;9.97;9.17;;;;;;;19.93;100.00;100200.03;5003272;28;20179;-65
2023/06/22 02:00:28;;;;;;;10.03;9.17;;;;;;;19.92;100.00;100198.38;5007142;28;20606;-64
2023/06/22 02:03:05;;;;;;;10.30;9.30;;;;;;;19.78;100.00;100190.94;5026927;28;20183;-65
2023/06/22 02:05:49;;;;;;;9.90;9.10;;;;;;;19.66;100.00;100182.47;5014786;28;20818;-65
2023/06/22 02:08:22;;;;;;;11.17;10.07;;;;;;;19.59;100.00;100173.56;5015051;28;20194;-65
2023/06/22 02:10:50;;;;;;;11.00;10.10;;;;;;;19.75;100.00;100165.97;5010188;28;20257;-64
2023/06/22 02:13:16;;;;;;;10.40;9.50;;;;;;;19.83;100.00;100171.34;5023489;28;20281;-64
2023/06/22 02:15:41;;;;;;;10.53;9.70;;;;;;;19.81;100.00;100188.88;5014425;28;20179;-63
2023/06/22 02:18:07;;;;;;;10.63;9.53;;;;;;;19.86;100.00;100191.09;5014934;28;20571;-63
2023/06/22 02:20:32;;;;;;;11.23;10.10;;;;;;;19.93;100.00;100193.97;5023992;28;20221;-63
2023/06/22 02:22:57;;;;;;;11.67;10.47;;;;;;;20.03;100.00;100199.97;5025245;28;20175;-64
2023/06/22 02:25:23;;;;;;;11.20;10.17;;;;;;;19.97;100.00;100208.38;5014182;28;20500;-64
2023/06/22 02:27:48;;;;;;;11.47;10.37;;;;;;;20.07;100.00;100196.13;5013268;28;20260;-64
2023/06/22 02:30:15;;;;;;;12.00;10.83;;;;;;;20.14;100.00;100209.41;5005848;28;20205;-64
2023/06/22 02:32:42;;;;;;;12.63;11.13;;;;;;;20.13;100.00;100208.59;5028020;28;20195;-64
2023/06/22 02:35:10;;;;;;;11.63;10.63;;;;;;;20.10;100.00;100195.00;5013983;28;20206;-64
2023/06/22 02:37:41;;;;;;;11.47;10.17;;;;;;;19.98;100.00;100179.53;5014484;28;20676;-64
2023/06/22 02:40:08;;;;;;;11.50;10.40;;;;;;;20.00;100.00;100167.13;5004737;28;20192;-64
2023/06/22 02:42:34;;;;;;;11.97;10.70;;;;;;;20.02;100.00;100158.34;5012881;28;20286;-64
2023/06/22 02:45:00;;;;;;;10.63;9.70;;;;;;;19.82;100.00;100142.72;5013920;28;20673;-63
2023/06/22 02:47:25;;;;;;;10.67;9.77;;;;;;;19.90;100.00;100136.84;5014797;28;20248;-63
2023/06/22 02:49:51;;;;;;;12.47;11.17;;;;;;;19.90;100.00;100136.84;5014376;28;20269;-63
2023/06/22 02:52:16;;;;;;;11.20;10.20;;;;;;;19.94;100.00;100136.38;5018308;28;20226;-63
2023/06/22 02:54:41;;;;;;;11.43;10.23;;;;;;;20.04;100.00;100138.94;5013622;28;20282;-64
2023/06/22 02:57:13;;;;;;;11.43;10.50;;;;;;;20.11;100.00;100140.03;5000468;28;20198;-64
2023/06/22 02:59:41;;;;;;;11.37;10.37;;;;;;;20.14;100.00;100142.38;5013712;28;20571;-63
2023/06/22 03:02:07;;;;;;;10.43;9.43;;;;;;;20.04;100.00;100131.13;4992108;28;20249;-63
2023/06/22 03:04:32;;;;;;;12.07;10.70;;;;;;;20.15;100.00;100125.69;5013727;28;20627;-63
2023/06/22 03:07:01;;;;;;;12.37;10.67;;;;;;;20.18;100.00;100115.94;5014164;28;20304;-63
2023/06/22 03:09:29;;;;;;;13.30;10.97;;;;;;;20.22;100.00;100109.44;5013865;28;20191;-63
2023/06/22 03:11:54;;;;;;;11.50;10.50;;;;;;;20.16;100.00;100116.91;5017511;28;20230;-63
2023/06/22 03:14:20;;;;;;;11.13;10.03;;;;;;;20.16;100.00;100116.91;5014630;28;20272;-64
2023/06/22 03:16:45;;;;;;;13.73;10.00;;;;;;;20.19;100.00;100123.63;5014735;28;20237;-64
2023/06/22 03:19:10;;;;;;;11.63;10.53;;;;;;;20.19;100.00;100126.22;5022212;28;20197;-64
2023/06/22 03:21:38;;;;;;;11.70;10.03;;;;;;;20.22;100.00;100118.13;5014862;28;20218;-64
2023/06/22 03:24:04;;;;;;;10.83;9.93;;;;;;;20.30;100.00;100122.59;5016211;28;20256;-63
2023/06/22 03:26:29;;;;;;;11.93;10.83;;;;;;;20.36;100.00;100121.22;5006382;28;20192;-63
2023/06/22 03:28:55;;;;;;;10.60;9.70;;;;;;;20.44;100.00;100119.50;5014155;28;20198;-63
2023/06/22 03:31:21;;;;;;;11.87;10.53;;;;;;;20.35;100.00;100124.78;4974216;28;20648;-63
2023/06/22 03:33:48;;;;;;;10.73;9.77;;;;;;;20.41;100.00;100119.78;5012663;28;20249;-64
2023/06/22 03:36:13;;;;;;;11.53;10.43;;;;;;;20.47;100.00;100118.38;5012365;28;20186;-64
2023/06/22 03:38:38;;;;;;;11.10;10.10;;;;;;;20.52;100.00;100113.53;5013003;28;20185;-63
2023/06/22 03:41:04;;;;;;;11.33;10.33;;;;;;;20.55;100.00;100109.81;5010655;28;20259;-63
2023/06/22 03:43:29;;;;;;;11.40;10.40;;;;;;;20.57;100.00;100121.75;5020213;28;20260;-63
2023/06/22 03:45:54;;;;;;;11.37;10.37;;;;;;;20.55;100.00;100115.84;5012830;28;20211;-63
2023/06/22 03:48:19;;;;;;;11.33;10.43;;;;;;;20.63;100.00;100115.94;5012602;28;20187;-64
2023/06/22 03:50:45;;;;;;;12.30;11.17;;;;;;;20.71;100.00;100106.53;5027418;28;20264;-65
2023/06/22 03:53:10;;;;;;;11.33;10.33;;;;;;;20.75;100.00;100106.13;5042157;28;20193;-64
2023/06/22 03:55:36;;;;;;;11.30;10.20;;;;;;;20.73;100.00;100115.88;5028419;28;20240;-63
2023/06/22 03:58:05;;;;;;;11.20;10.30;;;;;;;20.60;100.00;100116.25;5009475;28;20186;-63
2023/06/22 04:00:31;;;;;;;13.63;12.23;;;;;;;20.74;100.00;100120.16;5024904;28;20243;-62
2023/06/22 04:02:57;;;;;;;10.57;9.67;;;;;;;20.67;100.00;100124.28;5043572;28;20170;-64
2023/06/22 04:05:22;;;;;;;10.67;9.67;;;;;;;20.69;100.00;100114.53;5015003;28;20178;-63
2023/06/22 04:07:47;;;;;;;10.50;9.50;;;;;;;20.80;100.00;100122.16;5011269;28;20175;-63
2023/06/22 04:10:12;;;;;;;10.43;9.63;;;;;;;20.83;100.00;100121.03;5017788;28;20625;-64
2023/06/22 04:12:38;;;;;;;9.67;8.87;;;;;;;20.89;100.00;100115.22;5045918;28;20229;-64
2023/06/22 04:15:03;;;;;;;13.10;9.47;;;;;;;20.72;100.00;100116.84;5031091;28;20261;-64
2023/06/22 04:17:28;;;;;;;10.70;9.70;;;;;;;20.80;100.00;100121.31;5030180;28;20190;-64
2023/06/22 04:19:54;;;;;;;11.43;10.33;;;;;;;20.74;100.00;100117.53;5031457;28;20178;-64
2023/06/22 04:22:19;;;;;;;12.53;10.17;;;;;;;20.66;100.00;100117.41;5035955;28;20286;-64
2023/06/22 04:24:44;;;;;;;9.70;8.67;;;;;;;20.77;100.00;100119.03;5031710;28;20629;-64
2023/06/22 04:27:10;;;;;;;10.93;9.93;;;;;;;20.63;100.00;100129.00;5026794;28;20241;-64
2023/06/22 04:29:35;;;;;;;10.40;9.40;;;;;;;20.77;100.00;100137.31;5005721;28;20210;-64
2023/06/22 04:32:06;;;;;;;9.93;9.13;;;;;;;20.89;100.00;100130.09;5036112;28;20587;-64
2023/06/22 04:34:31;;;;;;;10.20;9.37;;;;;;;20.85;100.00;100123.50;5020826;28;20619;-65
2023/06/22 04:36:57;;;;;;;10.30;9.40;;;;;;;21.01;100.00;100121.03;5011975;28;20233;-64
2023/06/22 04:39:23;;;;;;;9.60;8.80;;;;;;;20.92;100.00;100127.97;5012154;28;20209;-64
2023/06/22 04:41:50;;;;;;;10.37;9.47;;;;;;;20.86;100.00;100125.94;5004347;28;20221;-64
2023/06/22 04:44:26;;;;;;;10.73;9.10;;;;;;;20.96;100.00;100118.88;5013688;28;20202;-64
2023/06/22 04:47:00;;;;;;;10.73;9.83;;;;;;;21.16;100.00;100123.94;5011657;28;20638;-64
2023/06/22 04:49:33;;;;;;;10.13;9.23;;;;;;;21.00;100.00;100119.41;5025293;28;20196;-63
2023/06/22 04:52:00;;;;;;;10.97;9.33;;;;;;;20.90;100.00;100121.25;5016632;28;20610;-64
2023/06/22 04:54:25;;;;;;;10.10;9.03;;;;;;;20.85;100.00;100113.03;5010561;28;20213;-65
2023/06/22 04:56:56;;;;;;;9.93;9.13;;;;;;;21.01;100.00;100113.19;4999607;28;20179;-64
2023/06/22 04:59:28;;;;;;;9.30;8.50;;;;;;;20.98;100.00;100112.69;5024245;28;20189;-64
2023/06/22 05:01:57;;;;;;;10.83;9.10;;;;;;;20.86;100.00;100110.28;5015233;28;20225;-64
2023/06/22 05:04:24;;;;;;;10.30;9.30;;;;;;;20.89;100.00;100107.38;4999963;28;20198;-64
2023/06/22 05:06:50;;;;;;;9.37;8.47;;;;;;;20.98;100.00;100112.69;5010927;28;20780;-65
2023/06/22 05:09:17;;;;;;;9.37;8.03;;;;;;;21.11;100.00;100121.75;5011601;28;20539;-68
2023/06/22 05:11:42;;;;;;;9.47;8.53;;;;;;;21.31;100.00;100116.34;5002306;28;20221;-69
2023/06/22 05:14:07;;;;;;;9.57;8.67;;;;;;;21.76;100.00;100117.13;5022154;28;20916;-71
2023/06/22 05:16:32;;;;;;;9.67;8.77;;;;;;;21.82;100.00;100106.03;5010308;28;20187;-69
2023/06/22 05:18:58;;;;;;;12.93;8.80;;;;;;;22.03;100.00;100103.00;5031647;28;20178;-68
2023/06/22 05:21:25;;;;;;;9.10;8.30;;;;;;;22.35;100.00;100096.22;5034911;28;20728;-68
2023/06/22 05:23:51;;;;;;;10.13;9.13;;;;;;;22.49;100.00;100094.78;5039326;28;20664;-67
2023/06/22 05:26:17;;;;;;;9.90;8.93;;;;;;;22.60;100.00;100091.03;5021253;28;20186;-67
2023/06/22 05:28:45;;;;;;;9.33;8.40;;;;;;;22.65;100.00;100095.78;5017702;28;20186;-67
2023/06/22 05:31:11;;;;;;;9.27;8.47;;;;;;;22.85;100.00;100088.44;5007238;28;20221;-70
2023/06/22 05:33:36;;;;;;;8.70;7.90;;;;;;;23.01;100.00;100084.97;5021735;28;20209;-67
2023/06/22 05:36:01;;;;;;;9.30;8.47;;;;;;;22.82;100.00;100089.59;5017218;28;20189;-68
2023/06/22 05:38:27;;;;;;;11.87;8.50;;;;;;;23.07;100.00;100081.69;5031551;28;20544;-69
2023/06/22 05:40:52;;;;;;;8.60;7.63;;;;;;;22.97;100.00;100087.13;5024629;28;20236;-68
2023/06/22 05:43:17;;;;;;;9.23;8.43;;;;;;;22.93;100.00;100091.03;5021027;28;20665;-73
2023/06/22 05:45:43;;;;;;;9.67;8.87;;;;;;;23.08;100.00;100091.19;5013144;28;20534;-68
2023/06/22 05:48:08;;;;;;;9.30;8.47;;;;;;;23.23;100.00;100082.69;5013708;28;20175;-68
2023/06/22 05:50:33;;;;;;;10.07;9.03;;;;;;;23.49;100.00;100085.91;5008043;28;20233;-73
2023/06/22 05:52:58;;;;;;;9.33;8.50;;;;;;;23.61;100.00;100080.28;5019934;28;20194;-69
2023/06/22 05:55:24;;;;;;;8.80;8.10;;;;;;;23.61;100.00;100088.97;5033135;28;20181;-68
2023/06/22 05:57:49;;;;;;;10.17;9.17;;;;;;;23.83;100.00;100090.03;5006849;28;20538;-72
2023/06/22 06:00:15;;;;;;;9.33;8.33;;;;;;;24.40;100.00;100088.13;5012210;28;20191;-68
2023/06/22 06:02:43;;;;;;;9.33;8.47;;;;;;;24.49;100.00;100091.50;5027659;28;20638;-70
2023/06/22 06:05:10;;;;;;;9.77;8.77;;;;;;;24.68;100.00;100084.97;5026965;28;20281;-71
2023/06/22 06:07:37;;;;;;;9.27;8.47;;;;;;;25.00;100.00;100082.25;5034022;28;20185;-71
2023/06/22 06:10:04;;;;;;;8.85;7.95;;;;;;;25.59;100.00;100082.31;5019914;28;20175;-66
2023/06/22 06:12:29;;;;;;;9.07;8.15;;;;;;;25.86;100.00;100081.84;5028943;28;20285;-69
2023/06/22 06:14:56;;;;;;;8.73;7.93;;;;;;;26.50;100.00;100096.94;5014429;28;20564;-69
2023/06/22 06:17:21;;;;;;;10.10;8.43;;;;;;;26.99;100.00;100098.00;5014785;28;20197;-72
2023/06/22 06:19:47;;;;;;;10.70;8.27;;;;;;;27.50;100.00;100094.28;5013645;28;20265;-70
2023/06/22 06:22:12;;;;;;;8.85;8.05;;;;;;;27.57;100.00;100093.50;5019947;28;20586;-67
2023/06/22 06:24:37;;;;;;;8.55;7.75;;;;;;;26.89;100.00;100100.97;5014423;28;20241;-73
2023/06/22 06:27:04;;;;;;;10.85;8.40;;;;;;;26.74;100.00;100094.94;5012997;28;20186;-68
2023/06/22 06:29:30;;;;;;;12.90;8.15;;;;;;;26.49;100.00;100099.78;5014231;28;20290;-71
2023/06/22 06:31:56;;;;;;;11.18;7.78;;;;;;;26.58;100.00;100096.00;5018682;28;20293;-72
2023/06/22 06:34:22;;;;;;;9.55;7.38;;;;;;;26.58;100.00;100094.19;5015245;28;20684;-68
2023/06/22 06:36:47;;;;;;;11.35;8.18;;;;;;;26.28;100.00;100084.75;5014141;28;20186;-69
2023/06/22 06:39:12;;;;;;;9.10;8.20;;;;;;;26.31;100.00;100084.38;5013103;28;20273;-73
2023/06/22 06:41:37;;;;;;;8.52;7.68;;;;;;;26.95;100.00;100083.53;5005696;28;20605;-70
2023/06/22 06:44:03;;;;;;;8.48;7.68;;;;;;;26.85;100.00;100069.88;5018356;28;20214;-71
2023/06/22 06:46:28;;;;;;;9.07;8.20;;;;;;;26.59;100.00;100071.25;5009840;28;20216;-70
2023/06/22 06:48:53;;;;;;;10.93;7.93;;;;;;;26.54;100.00;100079.72;5010682;28;20194;-66
2023/06/22 06:51:19;;;;;;;8.48;7.78;;;;;;;26.85;100.00;100077.78;5023385;28;20222;-68
2023/06/22 06:53:44;;;;;;;8.48;7.68;;;;;;;27.23;100.00;100069.53;5012941;28;20202;-68
2023/06/22 06:56:10;;;;;;;9.00;7.30;;;;;;;27.22;100.00;100076.63;5007459;28;20711;-68
2023/06/22 06:58:36;;;;;;;8.23;7.50;;;;;;;27.42;100.00;100077.78;5020021;28;20220;-68
2023/06/22 07:01:02;;;;;;;8.68;7.88;;;;;;;28.42;100.00;100070.19;5014463;28;20221;-67
2023/06/22 07:03:27;;;;;;;7.70;6.90;;;;;;;28.68;100.00;100068.63;5040578;28;20542;-69
2023/06/22 07:05:53;;;;;;;8.30;7.57;;;;;;;29.63;94.75;100068.25;5032191;28;20182;-67
2023/06/22 07:08:18;;;;;;;10.05;7.72;;;;;;;29.41;96.10;100062.41;5031980;28;20182;-69
2023/06/22 07:10:43;;;;;;;9.57;7.18;;;;;;;29.95;90.84;100065.66;5027786;28;20609;-68
2023/06/22 07:13:08;;;;;;;10.32;6.97;;;;;;;30.18;89.88;100074.09;5022248;28;20210;-66
2023/06/22 07:15:34;;;;;;;8.57;7.28;;;;;;;30.00;90.61;100072.97;5008896;28;20673;-67
2023/06/22 07:17:59;;;;;;;10.07;7.50;;;;;;;30.56;88.02;100074.06;5025590;28;20190;-66
2023/06/22 07:20:24;;;;;;;8.35;7.53;;;;;;;31.21;84.18;100056.94;5014053;28;20233;-68
2023/06/22 07:22:51;;;;;;;8.25;7.40;;;;;;;31.71;78.87;100063.91;5042057;28;20224;-68
2023/06/22 07:25:17;;;;;;;7.88;7.13;;;;;;;32.00;80.85;100064.16;5015256;28;20190;-68
2023/06/22 07:27:59;;;;;;;7.75;6.68;;;;;;;33.09;72.45;100059.53;5013230;28;20175;-68
2023/06/22 07:30:25;;;;;;;7.38;6.70;;;;;;;31.14;81.71;100053.53;4995734;28;20264;-68
2023/06/22 07:32:50;;;;;;;10.05;8.15;;;;;;;31.91;79.16;100054.06;5012188;28;20215;-68
2023/06/22 07:35:16;;;;;;;8.57;7.68;;;;;;;31.53;81.86;100061.25;4999135;28;20203;-67
2023/06/22 07:37:41;;;;;;;9.30;7.95;;;;;;;31.13;83.50;100056.41;4996066;28;20183;-69
2023/06/22 07:40:08;;;;;;;8.35;7.55;;;;;;;29.79;90.13;100044.91;4995205;28;20183;-67
2023/06/22 07:42:33;;;;;;;8.35;7.35;;;;;;;29.11;94.84;100044.34;5019141;28;20187;-68
2023/06/22 07:44:58;;;;;;;7.82;6.97;;;;;;;29.77;93.06;100042.47;4995932;28;20485;-67
2023/06/22 07:47:28;;;;;;;8.43;7.10;;;;;;;30.08;91.21;100040.06;5018025;28;20336;-66
2023/06/22 07:49:54;;;;;;;9.77;6.97;;;;;;;31.15;87.68;100047.19;5025796;28;20556;-67
2023/06/22 07:52:20;;;;;;;7.78;7.18;;;;;;;31.49;80.73;100036.16;5010425;28;20320;-67
2023/06/22 07:54:46;;;;;;;8.85;8.05;;;;;;;30.93;84.54;100044.13;5021720;28;20194;-67
2023/06/22 07:57:11;;;;;;;11.23;7.97;;;;;;;31.85;80.22;100037.97;5009278;28;20202;-67
2023/06/22 07:59:36;;;;;;;8.40;7.68;;;;;;;31.01;82.91;100050.97;5019154;28;20206;-67
2023/06/22 08:02:03;;;;;;;8.27;7.30;;;;;;;30.81;86.04;100044.03;5017320;28;20587;-65
2023/06/22 08:04:28;;;;;;;9.40;6.90;;;;;;;31.79;82.35;100038.88;5014464;28;20322;-65
2023/06/22 08:06:54;;;;;;;9.45;6.90;;;;;;;31.31;83.42;100048.44;5016040;28;20190;-66
2023/06/22 08:09:19;;;;;;;8.70;7.85;;;;;;;30.13;87.44;100027.00;5019024;28;20182;-66
2023/06/22 08:11:44;;;;;;;9.88;7.78;;;;;;;30.32;88.17;100021.78;5020437;28;20237;-67
2023/06/22 08:14:10;;;;;;;9.57;7.78;;;;;;;29.81;90.35;100012.88;5021232;28;20199;-65
2023/06/22 08:16:35;;;;;;;10.75;8.20;;;;;;;30.41;88.37;100021.25;5016888;28;20646;-66
2023/06/22 08:19:00;;;;;;;9.57;7.65;;;;;;;30.84;87.42;100017.03;5018670;28;20241;-66
2023/06/22 08:21:26;;;;;;;8.65;7.80;;;;;;;31.35;83.89;100011.59;5016947;28;20253;-66
2023/06/22 08:23:51;;;;;;;9.15;7.90;;;;;;;30.93;84.39;100004.28;5016917;28;20190;-66
2023/06/22 08:26:16;;;;;;;12.05;9.20;;;;;;;30.34;88.08;100003.78;5016713;28;20198;-67
2023/06/22 08:28:42;;;;;;;9.65;7.80;;;;;;;30.78;86.86;99996.66;5019341;28;20179;-65
2023/06/22 08:31:08;;;;;;;9.52;8.50;;;;;;;30.85;86.22;100010.69;5014546;28;20641;-66
2023/06/22 08:33:33;;;;;;;8.20;7.40;;;;;;;30.99;86.38;100008.72;5005127;28;20308;-66
2023/06/22 08:35:59;;;;;;;8.73;7.82;;;;;;;31.24;84.29;100013.16;5020516;28;20556;-66
2023/06/22 08:38:25;;;;;;;9.70;8.73;;;;;;;31.49;81.25;100015.69;5031283;28;20194;-66
2023/06/22 08:40:50;;;;;;;8.52;7.78;;;;;;;31.82;80.16;99995.88;5008946;28;20230;-67
2023/06/22 08:43:15;;;;;;;10.93;9.20;;;;;;;30.80;86.16;99986.66;5020658;28;20190;-66
2023/06/22 08:45:41;;;;;;;8.93;8.13;;;;;;;30.49;88.91;99977.78;5011377;28;20504;-66
2023/06/22 08:48:06;;;;;;;10.48;7.55;;;;;;;30.58;88.42;99981.75;5011832;28;20186;-66
2023/06/22 08:50:31;;;;;;;8.50;7.60;;;;;;;31.01;85.04;99974.78;5012962;28;20232;-65
2023/06/22 08:52:57;;;;;;;8.95;8.15;;;;;;;30.30;89.92;99976.88;5042703;28;20220;-66
2023/06/22 08:55:22;;;;;;;10.68;7.57;;;;;;;29.33;96.13;99975.22;5033971;28;20680;-66
2023/06/22 08:57:47;;;;;;;9.05;8.20;;;;;;;29.62;94.29;99981.81;5009249;28;20223;-66
2023/06/22 09:00:20;;;;;;;8.88;8.07;;;;;;;28.96;99.63;99982.84;5011130;28;20192;-66
2023/06/22 09:02:46;;;;;;;12.65;8.88;;;;;;;28.63;100.00;99973.13;5029894;28;20189;-65
2023/06/22 09:05:12;;;;;;;8.90;8.15;;;;;;;30.33;93.32;99984.41;5033602;28;20181;-66
2023/06/22 09:07:37;;;;;;;14.95;9.80;;;;;;;31.52;82.88;99978.06;5035116;28;20597;-66
2023/06/22 09:10:06;;;;;;;8.27;7.53;;;;;;;32.39;78.86;99970.66;5028120;28;20182;-66
2023/06/22 09:12:32;;;;;;;8.63;7.82;;;;;;;33.84;67.15;99969.03;5037370;28;20276;-66
2023/06/22 09:15:00;;;;;;;9.20;7.20;;;;;;;33.86;68.44;99966.13;5011498;28;20218;-66
2023/06/22 09:17:25;;;;;;;8.73;7.25;;;;;;;33.18;72.32;99960.59;5015485;28;20193;-66
2023/06/22 09:19:50;;;;;;;8.88;8.07;;;;;;;32.76;75.75;99950.97;5015460;28;20187;-67
2023/06/22 09:22:16;;;;;;;8.52;7.72;;;;;;;31.40;82.92;99953.28;5020419;28;20279;-66
2023/06/22 09:24:41;;;;;;;9.07;8.18;;;;;;;31.19;86.62;99949.25;5015749;28;20668;-65
2023/06/22 09:27:06;;;;;;;9.15;7.82;;;;;;;31.22;84.12;99948.78;5015359;28;20178;-66
2023/06/22 09:29:34;;;;;;;9.23;8.30;;;;;;;31.74;82.12;99935.03;5015950;28;20206;-66
2023/06/22 09:32:00;;;;;;;8.70;7.95;;;;;;;31.15;86.33;99942.78;5020337;28;20367;-65
2023/06/22 09:34:25;;;;;;;8.30;7.60;;;;;;;32.33;78.91;99940.44;5015519;28;20289;-66
2023/06/22 09:36:51;;;;;;;8.38;7.50;;;;;;;33.61;71.15;99948.59;5014785;28;20615;-66
2023/06/22 09:39:18;;;;;;;8.75;7.95;;;;;;;32.61;75.77;99949.56;5015222;28;20194;-66
2023/06/22 09:41:43;;;;;;;9.10;8.07;;;;;;;29.86;88.99;99937.00;5006731;28;20305;-66
2023/06/22 09:44:08;;;;;;;10.32;8.23;;;;;;;28.28;100.00;99925.72;5018455;28;20261;-66
2023/06/22 09:46:33;;;;;;;9.45;7.78;;;;;;;28.96;99.20;99921.97;5014771;28;20183;-66
2023/06/22 09:48:59;;;;;;;10.70;8.02;;;;;;;29.89;91.78;99930.44;5031182;28;20626;-67
2023/06/22 09:51:24;;;;;;;8.70;7.85;;;;;;;30.23;91.01;99926.53;5034657;28;20225;-66
2023/06/22 09:53:50;;;;;;;11.02;7.63;;;;;;;30.82;89.36;99923.50;5038993;28;20705;-66
2023/06/22 09:56:15;;;;;;;9.65;7.68;;;;;;;30.11;93.02;99915.81;5019345;28;20191;-66
2023/06/22 09:58:42;;;;;;;10.35;7.47;;;;;;;29.87;94.19;99914.75;5007147;28;20788;-66
2023/06/22 10:01:07;;;;;;;8.95;7.32;;;;;;;29.68;93.64;99900.59;5032844;28;20307;-65
2023/06/22 10:03:32;;;;;;;9.07;6.68;;;;;;;30.14;90.24;99901.31;5040451;28;20277;-65
2023/06/22 10:05:58;;;;;;;8.57;6.97;;;;;;;29.84;88.73;99906.44;5033750;28;20259;-65
2023/06/22 10:08:23;;;;;;;7.10;6.50;;;;;;;30.22;89.39;99901.03;5033845;28;20178;-66
2023/06/22 10:10:48;;;;;;;9.23;7.13;;;;;;;30.68;84.64;99908.78;5030068;28;20233;-67
2023/06/22 10:13:14;;;;;;;7.95;7.15;;;;;;;31.09;83.40;99895.88;5042600;28;20222;-67
2023/06/22 10:15:40;;;;;;;11.85;6.88;;;;;;;32.02;77.68;99891.03;5033439;28;20673;-67
2023/06/22 10:18:05;;;;;;;10.50;6.68;;;;;;;31.52;79.42;99873.59;5026863;28;20289;-66
2023/06/22 10:20:30;;;;;;;7.63;5.93;;;;;;;31.61;75.97;99864.25;5011731;28;20225;-66
2023/06/22 10:22:56;;;;;;;7.25;6.65;;;;;;;31.76;75.79;99863.03;5013796;28;20189;-66
2023/06/22 10:25:21;;;;;;;7.75;6.43;;;;;;;33.26;62.86;99856.28;5000523;28;20278;-67
2023/06/22 10:27:47;;;;;;;7.50;6.40;;;;;;;33.67;61.75;99862.31;5010341;28;20186;-68
2023/06/22 10:30:13;;;;;;;7.30;6.63;;;;;;;32.93;64.03;99836.50;5019872;28;20252;-67
2023/06/22 10:32:39;;;;;;;7.07;6.43;;;;;;;32.76;65.09;99839.09;5027491;28;20220;-68
2023/06/22 10:35:05;;;;;;;12.85;6.40;;;;;;;32.71;65.03;99833.66;5007053;28;20266;-67
2023/06/22 10:37:30;;;;;;;7.18;6.47;;;;;;;31.63;75.13;99829.44;5014058;28;20210;-68
2023/06/22 10:39:55;;;;;;;9.18;6.68;;;;;;;32.40;74.78;99825.91;5016928;28;20223;-68
2023/06/22 11:25:31;;;;;;;7.63;6.35;;;;;;;31.10;76.91;99769.97;4998657;28;20329;-68
2023/06/22 11:27:56;;;;;;;8.57;7.03;;;;;;;30.29;82.82;99772.81;5019311;28;20224;-66
2023/06/22 11:30:22;;;;;;;10.57;7.30;;;;;;;30.31;81.34;99765.47;4998328;28;21028;-64
2023/06/22 11:32:48;;;;;;;10.43;6.85;;;;;;;30.41;81.99;99763.88;5022865;28;20197;-65
2023/06/22 11:35:13;;;;;;;8.80;7.10;;;;;;;30.43;83.04;99769.00;5025333;28;20198;-64
2023/06/22 11:37:38;;;;;;;9.50;6.88;;;;;;;31.15;80.14;99764.81;5018137;28;20685;-64
2023/06/22 11:40:05;;;;;;;7.07;6.45;;;;;;;31.23;80.02;99762.63;5012407;28;20193;-64
2023/06/22 11:42:30;;;;;;;8.05;6.53;;;;;;;30.24;83.21;99760.22;5015940;28;20201;-65
2023/06/22 11:44:55;;;;;;;12.60;7.13;;;;;;;30.51;84.41;99757.28;5013066;28;20179;-64
2023/06/22 11:47:21;;;;;;;11.48;6.47;;;;;;;31.04;81.08;99753.09;5016064;28;20206;-66
2023/06/22 11:49:46;;;;;;;11.13;6.70;;;;;;;31.49;77.52;99749.13;5013863;28;20191;-66
2023/06/22 11:52:12;;;;;;;13.93;6.72;;;;;;;31.58;76.57;99739.78;5015734;28;20230;-65
2023/06/22 11:54:38;;;;;;;7.95;7.05;;;;;;;31.81;78.26;99741.63;5013941;28;20203;-65
2023/06/22 11:57:03;;;;;;;8.18;6.78;;;;;;;31.42;75.17;99738.63;5001282;28;20190;-66
2023/06/22 11:59:29;;;;;;;10.68;7.05;;;;;;;31.26;77.01;99737.44;5020103;28;20178;-65